sensor_id;sensor_type;location;lat;lon;timestamp;temperature;humidity
21928;DHT22;11128;51.096;17.190;2023-08-08T00:01:09;15.60;1.00
21928;DHT22;11128;51.096;17.190;2023-08-08T00:06:10;15.60;1.00
21928;DHT22;11128;51.096;17.190;2023-08-08T00:11:11;15.60;1.00
21928;DHT22;11128;51.096;17.190;2023-08-08T00:16:13;15.60;1.00
21928;DHT22;11128;51.096;17.190;2023-08-08T00:21:14;15.60;1.00
21928;DHT22;11128;51.096;17.190;2023-08-08T00:26:15;15.60;1.00
21928;DHT22;11128;51.096;17.190;2023-08-08T00:31:18;15.60;1.00
21928;DHT22;11128;51.096;17.190;2023-08-08T00:36:20;15.50;1.00
21928;DHT22;11128;51.096;17.190;2023-08-08T00:41:22;15.50;1.00
21928;DHT22;11128;51.096;17.190;2023-08-08T00:46:23;15.50;1.00
21928;DHT22;11128;51.096;17.190;2023-08-08T00:51:25;15.50;1.00
21928;DHT22;11128;51.096;17.190;2023-08-08T00:56:26;15.50;1.00
21928;DHT22;11128;51.096;17.190;2023-08-08T01:01:28;15.50;1.00
21928;DHT22;11128;51.096;17.190;2023-08-08T01:06:48;15.50;1.00
21928;DHT22;11128;51.096;17.190;2023-08-08T01:11:52;15.50;1.00
21928;DHT22;11128;51.096;17.190;2023-08-08T01:16:54;15.40;1.00
21928;DHT22;11128;51.096;17.190;2023-08-08T01:22:02;15.40;1.00
21928;DHT22;11128;51.096;17.190;2023-08-08T01:27:05;15.40;1.00
21928;DHT22;11128;51.096;17.190;2023-08-08T01:32:07;15.30;1.00
21928;DHT22;11128;51.096;17.190;2023-08-08T01:37:24;15.20;1.00
21928;DHT22;11128;51.096;17.190;2023-08-08T01:42:28;15.20;1.00
21928;DHT22;11128;51.096;17.190;2023-08-08T01:47:30;15.20;1.00
21928;DHT22;11128;51.096;17.190;2023-08-08T01:52:31;15.20;1.00
21928;DHT22;11128;51.096;17.190;2023-08-08T01:57:33;15.10;1.00
21928;DHT22;11128;51.096;17.190;2023-08-08T02:02:34;15.10;1.00
21928;DHT22;11128;51.096;17.190;2023-08-08T02:07:36;15.10;1.00
21928;DHT22;11128;51.096;17.190;2023-08-08T02:12:38;15.00;1.00
21928;DHT22;11128;51.096;17.190;2023-08-08T02:17:39;15.00;1.00
21928;DHT22;11128;51.096;17.190;2023-08-08T02:22:41;14.90;1.00
21928;DHT22;11128;51.096;17.190;2023-08-08T02:27:42;14.90;1.00
21928;DHT22;11128;51.096;17.190;2023-08-08T02:32:43;14.90;1.00
21928;DHT22;11128;51.096;17.190;2023-08-08T02:37:45;14.80;1.00
21928;DHT22;11128;51.096;17.190;2023-08-08T02:42:46;14.80;1.00
21928;DHT22;11128;51.096;17.190;2023-08-08T02:47:48;14.70;1.00
21928;DHT22;11128;51.096;17.190;2023-08-08T02:52:49;14.70;1.00
21928;DHT22;11128;51.096;17.190;2023-08-08T02:57:51;14.60;1.00
21928;DHT22;11128;51.096;17.190;2023-08-08T03:02:52;14.60;1.00
21928;DHT22;11128;51.096;17.190;2023-08-08T03:07:53;14.50;1.00
21928;DHT22;11128;51.096;17.190;2023-08-08T03:12:55;14.50;1.00
21928;DHT22;11128;51.096;17.190;2023-08-08T03:17:56;14.50;1.00
21928;DHT22;11128;51.096;17.190;2023-08-08T03:22:58;14.50;1.00
21928;DHT22;11128;51.096;17.190;2023-08-08T03:27:59;14.40;1.00
21928;DHT22;11128;51.096;17.190;2023-08-08T03:33:01;14.50;1.00
21928;DHT22;11128;51.096;17.190;2023-08-08T03:38:02;14.40;1.00
21928;DHT22;11128;51.096;17.190;2023-08-08T03:43:04;14.30;1.00
21928;DHT22;11128;51.096;17.190;2023-08-08T03:48:05;14.30;1.00
21928;DHT22;11128;51.096;17.190;2023-08-08T03:53:06;14.30;1.00
21928;DHT22;11128;51.096;17.190;2023-08-08T03:58:08;14.30;1.00
21928;DHT22;11128;51.096;17.190;2023-08-08T04:03:10;14.30;1.00
21928;DHT22;11128;51.096;17.190;2023-08-08T04:08:11;14.30;1.00
21928;DHT22;11128;51.096;17.190;2023-08-08T04:13:12;14.20;1.00
21928;DHT22;11128;51.096;17.190;2023-08-08T04:18:14;14.20;1.00
21928;DHT22;11128;51.096;17.190;2023-08-08T04:23:15;14.20;1.00
21928;DHT22;11128;51.096;17.190;2023-08-08T04:28:16;14.20;1.00
21928;DHT22;11128;51.096;17.190;2023-08-08T04:33:18;14.20;1.00
21928;DHT22;11128;51.096;17.190;2023-08-08T04:38:19;14.20;1.00
21928;DHT22;11128;51.096;17.190;2023-08-08T04:43:23;14.20;1.00
21928;DHT22;11128;51.096;17.190;2023-08-08T04:48:25;14.20;1.00
21928;DHT22;11128;51.096;17.190;2023-08-08T04:53:26;14.20;1.00
21928;DHT22;11128;51.096;17.190;2023-08-08T04:58:27;14.20;1.00
21928;DHT22;11128;51.096;17.190;2023-08-08T05:03:29;14.30;1.00
21928;DHT22;11128;51.096;17.190;2023-08-08T05:08:30;14.30;1.00
21928;DHT22;11128;51.096;17.190;2023-08-08T05:13:31;14.40;1.00
21928;DHT22;11128;51.096;17.190;2023-08-08T05:18:33;14.40;1.00
21928;DHT22;11128;51.096;17.190;2023-08-08T05:23:35;14.40;1.00
21928;DHT22;11128;51.096;17.190;2023-08-08T05:28:37;14.50;1.00
21928;DHT22;11128;51.096;17.190;2023-08-08T05:33:39;14.60;1.00
21928;DHT22;11128;51.096;17.190;2023-08-08T05:38:40;14.60;1.00
21928;DHT22;11128;51.096;17.190;2023-08-08T05:43:45;14.70;1.00
21928;DHT22;11128;51.096;17.190;2023-08-08T05:48:46;14.70;99.90
21928;DHT22;11128;51.096;17.190;2023-08-08T05:53:48;14.70;99.90
21928;DHT22;11128;51.096;17.190;2023-08-08T05:58:49;14.80;99.90
21928;DHT22;11128;51.096;17.190;2023-08-08T06:03:50;14.80;99.90
21928;DHT22;11128;51.096;17.190;2023-08-08T06:08:52;14.80;99.90
21928;DHT22;11128;51.096;17.190;2023-08-08T06:13:54;14.90;99.90
21928;DHT22;11128;51.096;17.190;2023-08-08T06:18:56;15.00;99.90
21928;DHT22;11128;51.096;17.190;2023-08-08T06:23:57;15.10;99.90
21928;DHT22;11128;51.096;17.190;2023-08-08T06:28:59;15.20;99.90
21928;DHT22;11128;51.096;17.190;2023-08-08T06:34:00;15.30;99.90
21928;DHT22;11128;51.096;17.190;2023-08-08T06:39:01;15.40;99.90
21928;DHT22;11128;51.096;17.190;2023-08-08T06:44:03;15.50;99.90
21928;DHT22;11128;51.096;17.190;2023-08-08T06:49:04;15.50;99.90
21928;DHT22;11128;51.096;17.190;2023-08-08T06:54:08;15.50;99.90
21928;DHT22;11128;51.096;17.190;2023-08-08T06:59:09;15.50;99.90
21928;DHT22;11128;51.096;17.190;2023-08-08T07:04:11;15.60;99.90
21928;DHT22;11128;51.096;17.190;2023-08-08T07:09:12;15.60;99.90
21928;DHT22;11128;51.096;17.190;2023-08-08T07:14:15;15.80;99.90
21928;DHT22;11128;51.096;17.190;2023-08-08T07:19:17;16.00;99.90
21928;DHT22;11128;51.096;17.190;2023-08-08T07:24:20;16.20;50.40
21928;DHT22;11128;51.096;17.190;2023-08-08T07:29:21;16.40;24.50
21928;DHT22;11128;51.096;17.190;2023-08-08T07:34:24;16.40;34.70
21928;DHT22;11128;51.096;17.190;2023-08-08T07:39:29;16.50;22.40
21928;DHT22;11128;51.096;17.190;2023-08-08T07:44:31;16.60;26.00
21928;DHT22;11128;51.096;17.190;2023-08-08T07:49:35;16.60;30.40
21928;DHT22;11128;51.096;17.190;2023-08-08T07:54:37;16.60;21.70
21928;DHT22;11128;51.096;17.190;2023-08-08T07:59:39;16.70;10.30
21928;DHT22;11128;51.096;17.190;2023-08-08T08:04:40;16.70;1.00
21928;DHT22;11128;51.096;17.190;2023-08-08T08:09:41;16.90;1.00
21928;DHT22;11128;51.096;17.190;2023-08-08T08:14:43;17.20;1.00
21928;DHT22;11128;51.096;17.190;2023-08-08T08:19:45;17.60;1.00
21928;DHT22;11128;51.096;17.190;2023-08-08T08:24:46;17.90;1.00
21928;DHT22;11128;51.096;17.190;2023-08-08T08:29:48;17.90;1.00
21928;DHT22;11128;51.096;17.190;2023-08-08T08:34:49;18.00;1.00
21928;DHT22;11128;51.096;17.190;2023-08-08T08:39:51;18.00;1.00
21928;DHT22;11128;51.096;17.190;2023-08-08T08:44:56;18.10;1.00
21928;DHT22;11128;51.096;17.190;2023-08-08T08:49:59;18.30;1.00
21928;DHT22;11128;51.096;17.190;2023-08-08T08:55:02;18.30;1.00
21928;DHT22;11128;51.096;17.190;2023-08-08T09:00:05;18.20;1.00
21928;DHT22;11128;51.096;17.190;2023-08-08T09:05:07;18.10;1.00
21928;DHT22;11128;51.096;17.190;2023-08-08T09:10:09;18.00;1.00
21928;DHT22;11128;51.096;17.190;2023-08-08T09:15:14;18.00;1.00
21928;DHT22;11128;51.096;17.190;2023-08-08T09:20:17;18.00;1.00
21928;DHT22;11128;51.096;17.190;2023-08-08T09:25:19;18.20;1.00
21928;DHT22;11128;51.096;17.190;2023-08-08T09:30:20;18.60;1.00
21928;DHT22;11128;51.096;17.190;2023-08-08T09:35:23;18.90;1.00
21928;DHT22;11128;51.096;17.190;2023-08-08T09:40:24;19.00;1.00
21928;DHT22;11128;51.096;17.190;2023-08-08T09:45:26;19.00;1.00
21928;DHT22;11128;51.096;17.190;2023-08-08T09:50:28;19.40;1.00
21928;DHT22;11128;51.096;17.190;2023-08-08T09:55:30;19.60;1.00
21928;DHT22;11128;51.096;17.190;2023-08-08T10:00:32;19.60;1.00
21928;DHT22;11128;51.096;17.190;2023-08-08T10:05:35;19.70;1.00
21928;DHT22;11128;51.096;17.190;2023-08-08T10:10:39;19.60;1.00
21928;DHT22;11128;51.096;17.190;2023-08-08T10:15:41;19.30;1.00
21928;DHT22;11128;51.096;17.190;2023-08-08T10:20:50;19.30;1.00
21928;DHT22;11128;51.096;17.190;2023-08-08T10:25:52;19.40;1.00
21928;DHT22;11128;51.096;17.190;2023-08-08T10:30:58;19.30;1.00
21928;DHT22;11128;51.096;17.190;2023-08-08T10:36:05;19.10;1.00
21928;DHT22;11128;51.096;17.190;2023-08-08T10:41:34;19.30;1.00
21928;DHT22;11128;51.096;17.190;2023-08-08T10:46:45;19.90;1.00
21928;DHT22;11128;51.096;17.190;2023-08-08T10:51:48;20.10;1.00
21928;DHT22;11128;51.096;17.190;2023-08-08T10:56:52;20.10;1.00
21928;DHT22;11128;51.096;17.190;2023-08-08T11:01:53;20.40;1.00
21928;DHT22;11128;51.096;17.190;2023-08-08T11:06:57;20.50;1.00
21928;DHT22;11128;51.096;17.190;2023-08-08T11:11:59;20.30;1.00
21928;DHT22;11128;51.096;17.190;2023-08-08T11:17:04;20.00;1.00
21928;DHT22;11128;51.096;17.190;2023-08-08T11:22:10;19.80;1.00
21928;DHT22;11128;51.096;17.190;2023-08-08T11:27:12;19.70;1.00
21928;DHT22;11128;51.096;17.190;2023-08-08T11:32:16;19.60;1.00
21928;DHT22;11128;51.096;17.190;2023-08-08T11:37:18;19.70;1.00
21928;DHT22;11128;51.096;17.190;2023-08-08T11:42:20;20.10;1.00
21928;DHT22;11128;51.096;17.190;2023-08-08T11:47:25;20.30;1.00
21928;DHT22;11128;51.096;17.190;2023-08-08T11:52:28;20.50;1.00
21928;DHT22;11128;51.096;17.190;2023-08-08T11:57:31;20.60;1.00
21928;DHT22;11128;51.096;17.190;2023-08-08T12:02:34;20.90;1.00
21928;DHT22;11128;51.096;17.190;2023-08-08T12:07:36;21.10;1.00
21928;DHT22;11128;51.096;17.190;2023-08-08T12:12:37;20.80;1.00
21928;DHT22;11128;51.096;17.190;2023-08-08T12:17:39;20.70;1.00
21928;DHT22;11128;51.096;17.190;2023-08-08T12:22:41;20.90;1.00
21928;DHT22;11128;51.096;17.190;2023-08-08T12:27:43;20.80;1.00
21928;DHT22;11128;51.096;17.190;2023-08-08T12:32:44;20.50;1.00
21928;DHT22;11128;51.096;17.190;2023-08-08T12:37:48;20.50;1.00
21928;DHT22;11128;51.096;17.190;2023-08-08T12:42:50;20.70;1.00
21928;DHT22;11128;51.096;17.190;2023-08-08T12:47:52;20.80;1.00
21928;DHT22;11128;51.096;17.190;2023-08-08T12:52:53;20.80;1.00
21928;DHT22;11128;51.096;17.190;2023-08-08T12:57:55;20.90;1.00
21928;DHT22;11128;51.096;17.190;2023-08-08T13:02:58;21.00;1.00
21928;DHT22;11128;51.096;17.190;2023-08-08T13:08:06;20.90;1.00
21928;DHT22;11128;51.096;17.190;2023-08-08T13:13:15;20.90;1.00
21928;DHT22;11128;51.096;17.190;2023-08-08T13:18:18;20.80;1.00
21928;DHT22;11128;51.096;17.190;2023-08-08T13:23:20;20.70;1.00
21928;DHT22;11128;51.096;17.190;2023-08-08T13:28:21;20.50;1.00
21928;DHT22;11128;51.096;17.190;2023-08-08T13:33:23;20.30;1.00
21928;DHT22;11128;51.096;17.190;2023-08-08T13:38:25;20.30;1.00
21928;DHT22;11128;51.096;17.190;2023-08-08T13:43:26;20.30;1.00
21928;DHT22;11128;51.096;17.190;2023-08-08T13:48:28;20.40;1.00
21928;DHT22;11128;51.096;17.190;2023-08-08T13:53:29;20.20;1.00
21928;DHT22;11128;51.096;17.190;2023-08-08T13:58:31;20.10;1.00
21928;DHT22;11128;51.096;17.190;2023-08-08T14:03:33;19.90;1.00
21928;DHT22;11128;51.096;17.190;2023-08-08T14:08:34;20.00;1.00
21928;DHT22;11128;51.096;17.190;2023-08-08T14:13:35;20.00;1.00
21928;DHT22;11128;51.096;17.190;2023-08-08T14:18:38;20.00;1.00
21928;DHT22;11128;51.096;17.190;2023-08-08T14:23:40;20.20;1.00
21928;DHT22;11128;51.096;17.190;2023-08-08T14:28:41;20.30;1.00
21928;DHT22;11128;51.096;17.190;2023-08-08T14:33:43;20.30;1.00
21928;DHT22;11128;51.096;17.190;2023-08-08T14:38:47;20.30;1.00
21928;DHT22;11128;51.096;17.190;2023-08-08T14:43:48;20.30;1.00
21928;DHT22;11128;51.096;17.190;2023-08-08T14:48:50;20.20;1.00
21928;DHT22;11128;51.096;17.190;2023-08-08T14:53:51;20.10;1.00
21928;DHT22;11128;51.096;17.190;2023-08-08T14:58:52;20.20;1.00
21928;DHT22;11128;51.096;17.190;2023-08-08T15:03:54;20.30;1.00
21928;DHT22;11128;51.096;17.190;2023-08-08T15:08:57;20.30;1.00
21928;DHT22;11128;51.096;17.190;2023-08-08T15:13:58;20.40;1.00
21928;DHT22;11128;51.096;17.190;2023-08-08T15:19:02;20.50;1.00
21928;DHT22;11128;51.096;17.190;2023-08-08T15:24:03;20.60;1.00
21928;DHT22;11128;51.096;17.190;2023-08-08T15:29:05;20.60;1.00
21928;DHT22;11128;51.096;17.190;2023-08-08T15:34:06;20.60;1.00
21928;DHT22;11128;51.096;17.190;2023-08-08T15:39:08;20.50;1.00
21928;DHT22;11128;51.096;17.190;2023-08-08T15:44:09;20.40;1.00
21928;DHT22;11128;51.096;17.190;2023-08-08T15:49:11;20.30;1.00
21928;DHT22;11128;51.096;17.190;2023-08-08T15:54:15;20.20;1.00
21928;DHT22;11128;51.096;17.190;2023-08-08T15:59:16;20.20;1.00
21928;DHT22;11128;51.096;17.190;2023-08-08T16:04:17;20.30;1.00
21928;DHT22;11128;51.096;17.190;2023-08-08T16:09:18;20.30;1.00
21928;DHT22;11128;51.096;17.190;2023-08-08T16:14:20;20.30;1.00
21928;DHT22;11128;51.096;17.190;2023-08-08T16:19:21;20.30;1.00
21928;DHT22;11128;51.096;17.190;2023-08-08T16:24:23;20.30;1.00
21928;DHT22;11128;51.096;17.190;2023-08-08T16:29:24;20.30;1.00
21928;DHT22;11128;51.096;17.190;2023-08-08T16:34:25;20.30;1.00
21928;DHT22;11128;51.096;17.190;2023-08-08T16:39:26;20.20;1.00
21928;DHT22;11128;51.096;17.190;2023-08-08T16:44:28;20.10;1.00
21928;DHT22;11128;51.096;17.190;2023-08-08T16:49:29;20.00;1.00
21928;DHT22;11128;51.096;17.190;2023-08-08T16:54:32;20.00;1.00
21928;DHT22;11128;51.096;17.190;2023-08-08T16:59:34;19.90;1.00
21928;DHT22;11128;51.096;17.190;2023-08-08T17:04:35;19.80;1.00
21928;DHT22;11128;51.096;17.190;2023-08-08T17:09:36;19.70;1.00
21928;DHT22;11128;51.096;17.190;2023-08-08T17:14:37;19.60;1.00
21928;DHT22;11128;51.096;17.190;2023-08-08T17:19:39;19.60;1.00
21928;DHT22;11128;51.096;17.190;2023-08-08T17:24:40;19.50;1.00
21928;DHT22;11128;51.096;17.190;2023-08-08T17:29:41;19.40;1.00
21928;DHT22;11128;51.096;17.190;2023-08-08T17:34:43;19.30;1.00
21928;DHT22;11128;51.096;17.190;2023-08-08T17:39:44;19.10;1.00
21928;DHT22;11128;51.096;17.190;2023-08-08T17:44:45;19.00;1.00
21928;DHT22;11128;51.096;17.190;2023-08-08T17:49:46;18.90;1.00
21928;DHT22;11128;51.096;17.190;2023-08-08T17:54:48;18.80;1.00
21928;DHT22;11128;51.096;17.190;2023-08-08T17:59:49;18.70;1.00
21928;DHT22;11128;51.096;17.190;2023-08-08T18:04:51;18.60;1.00
21928;DHT22;11128;51.096;17.190;2023-08-08T18:09:53;18.40;1.00
21928;DHT22;11128;51.096;17.190;2023-08-08T18:14:54;18.40;1.00
21928;DHT22;11128;51.096;17.190;2023-08-08T18:19:57;18.30;1.00
21928;DHT22;11128;51.096;17.190;2023-08-08T18:24:58;18.30;1.00
21928;DHT22;11128;51.096;17.190;2023-08-08T18:30:00;18.30;72.70
21928;DHT22;11128;51.096;17.190;2023-08-08T18:35:02;18.20;87.00
21928;DHT22;11128;51.096;17.190;2023-08-08T18:40:05;18.20;79.10
21928;DHT22;11128;51.096;17.190;2023-08-08T18:45:10;18.20;88.20
21928;DHT22;11128;51.096;17.190;2023-08-08T18:50:12;18.10;99.90
21928;DHT22;11128;51.096;17.190;2023-08-08T18:55:13;18.10;99.90
21928;DHT22;11128;51.096;17.190;2023-08-08T19:00:15;18.10;99.90
21928;DHT22;11128;51.096;17.190;2023-08-08T19:05:17;18.00;99.90
21928;DHT22;11128;51.096;17.190;2023-08-08T19:10:19;17.90;99.90
21928;DHT22;11128;51.096;17.190;2023-08-08T19:15:20;17.90;99.90
21928;DHT22;11128;51.096;17.190;2023-08-08T19:20:22;17.90;99.90
21928;DHT22;11128;51.096;17.190;2023-08-08T19:25:24;17.80;99.90
21928;DHT22;11128;51.096;17.190;2023-08-08T19:30:25;17.70;99.90
21928;DHT22;11128;51.096;17.190;2023-08-08T19:35:27;17.50;99.90
21928;DHT22;11128;51.096;17.190;2023-08-08T19:40:31;17.30;99.90
21928;DHT22;11128;51.096;17.190;2023-08-08T19:45:33;17.20;99.90
21928;DHT22;11128;51.096;17.190;2023-08-08T19:50:37;17.10;99.90
21928;DHT22;11128;51.096;17.190;2023-08-08T19:55:39;17.20;99.90
21928;DHT22;11128;51.096;17.190;2023-08-08T20:00:41;17.20;99.90
21928;DHT22;11128;51.096;17.190;2023-08-08T20:05:42;17.30;99.90
21928;DHT22;11128;51.096;17.190;2023-08-08T20:10:44;17.30;99.90
21928;DHT22;11128;51.096;17.190;2023-08-08T20:15:45;17.30;99.90
21928;DHT22;11128;51.096;17.190;2023-08-08T20:20:47;17.30;99.90
21928;DHT22;11128;51.096;17.190;2023-08-08T20:25:49;17.30;99.90
21928;DHT22;11128;51.096;17.190;2023-08-08T20:30:50;17.20;99.90
21928;DHT22;11128;51.096;17.190;2023-08-08T20:35:52;17.20;99.90
21928;DHT22;11128;51.096;17.190;2023-08-08T20:40:54;17.20;99.90
21928;DHT22;11128;51.096;17.190;2023-08-08T20:45:57;17.20;99.90
21928;DHT22;11128;51.096;17.190;2023-08-08T20:50:58;17.20;99.90
21928;DHT22;11128;51.096;17.190;2023-08-08T20:56:00;17.20;99.90
21928;DHT22;11128;51.096;17.190;2023-08-08T21:01:01;17.20;99.90
21928;DHT22;11128;51.096;17.190;2023-08-08T21:06:03;17.20;99.90
21928;DHT22;11128;51.096;17.190;2023-08-08T21:11:04;17.10;99.90
21928;DHT22;11128;51.096;17.190;2023-08-08T21:16:06;17.10;99.90
21928;DHT22;11128;51.096;17.190;2023-08-08T21:21:07;17.20;99.90
21928;DHT22;11128;51.096;17.190;2023-08-08T21:26:09;17.20;99.90
21928;DHT22;11128;51.096;17.190;2023-08-08T21:31:10;17.10;99.90
21928;DHT22;11128;51.096;17.190;2023-08-08T21:36:12;17.00;99.90
21928;DHT22;11128;51.096;17.190;2023-08-08T21:41:13;17.10;99.90
21928;DHT22;11128;51.096;17.190;2023-08-08T21:46:15;17.00;99.90
21928;DHT22;11128;51.096;17.190;2023-08-08T21:51:17;17.00;99.90
21928;DHT22;11128;51.096;17.190;2023-08-08T21:56:18;17.00;99.90
21928;DHT22;11128;51.096;17.190;2023-08-08T22:01:20;16.90;99.90
21928;DHT22;11128;51.096;17.190;2023-08-08T22:06:21;16.90;99.90
21928;DHT22;11128;51.096;17.190;2023-08-08T22:11:28;16.90;99.90
21928;DHT22;11128;51.096;17.190;2023-08-08T22:16:30;16.90;99.90
21928;DHT22;11128;51.096;17.190;2023-08-08T22:21:31;16.80;99.90
21928;DHT22;11128;51.096;17.190;2023-08-08T22:26:33;16.80;99.90
21928;DHT22;11128;51.096;17.190;2023-08-08T22:31:34;16.80;99.90
21928;DHT22;11128;51.096;17.190;2023-08-08T22:36:36;16.80;99.90
21928;DHT22;11128;51.096;17.190;2023-08-08T22:41:37;16.80;99.90
21928;DHT22;11128;51.096;17.190;2023-08-08T22:46:39;16.80;99.90
21928;DHT22;11128;51.096;17.190;2023-08-08T22:51:40;16.70;99.90
21928;DHT22;11128;51.096;17.190;2023-08-08T22:56:41;16.70;99.90
21928;DHT22;11128;51.096;17.190;2023-08-08T23:02:02;16.60;99.90
21928;DHT22;11128;51.096;17.190;2023-08-08T23:07:04;16.60;99.90
21928;DHT22;11128;51.096;17.190;2023-08-08T23:12:05;16.60;99.90
21928;DHT22;11128;51.096;17.190;2023-08-08T23:17:06;16.60;99.90
21928;DHT22;11128;51.096;17.190;2023-08-08T23:22:07;16.60;99.90
21928;DHT22;11128;51.096;17.190;2023-08-08T23:27:08;16.60;99.90
21928;DHT22;11128;51.096;17.190;2023-08-08T23:32:09;16.60;99.90
21928;DHT22;11128;51.096;17.190;2023-08-08T23:37:11;16.60;99.90
21928;DHT22;11128;51.096;17.190;2023-08-08T23:42:12;16.50;99.90
21928;DHT22;11128;51.096;17.190;2023-08-08T23:47:13;16.40;99.90
21928;DHT22;11128;51.096;17.190;2023-08-08T23:52:14;16.40;99.90
21928;DHT22;11128;51.096;17.190;2023-08-08T23:57:15;16.40;99.90
